»·PEaware :: N717TS KMFR-KSFO

N717TS :: KMFR-KSFO

FLIGHT INFORMATION

Flight Status: Arrived
Operator: Privately registered:
United States
More flights under this callsign
Pilot: Ty S. (2873)
Aircraft: BOMBARDIER BD-100 CHALLENGER 300
(CL30)
More flights by this aircraft type
Origin: KMFR Rogue Valley Intl-Medford
United States
Destination: KSFO San Francisco Intl
United States
More flights between these airports :: More routes between these airports
Route: ++ JKSN1 OED FINER Q3 FOWND + MLBEC BDEGA2
File this flight plan on PilotEdge
Remarks:
Altitude:
(Current/Filed)
35,000ft
Speed:
(Current/Filed)
450kts
Departed: 07-Sep-18 03:55 PM
Arrived: 07-Sep-18 04:55 PM
Distance/Time
Traveled:
286nm/1:00
Distance/Time
To Go:
Arrived

Flight Plot

Page will automatically refresh every two minutes.

Flight plan parsing failed; only flown route is shown


Map Options




Map Legend


Flown Route
Filed Route
Departure Airport
Arrival Airport
Navaid (VOR, NDB)
Fix

Horizontal Profiles

Position Reports

Time Latitude Longitude Heading Altitude Ground
Speed
07-Sep-18 14:46 42.374763 -122.878425 292 1339ft 0kts
07-Sep-18 14:47 42.374763 -122.878425 292 1339ft 0kts
07-Sep-18 14:48 42.374763 -122.878425 292 1339ft 0kts
07-Sep-18 14:49 42.374763 -122.878425 292 1339ft 0kts
07-Sep-18 14:50 42.374763 -122.878425 292 1339ft 0kts
07-Sep-18 14:50 42.374763 -122.878425 292 1339ft 0kts
07-Sep-18 14:52 42.374763 -122.878425 292 1339ft 0kts
07-Sep-18 14:53 42.374763 -122.878425 292 1339ft 0kts
07-Sep-18 14:54 42.374763 -122.878425 292 1339ft 0kts
07-Sep-18 14:54 42.374763 -122.878425 292 1339ft 0kts
07-Sep-18 14:55 42.374763 -122.878425 292 1339ft 0kts
07-Sep-18 14:57 42.374763 -122.878425 292 1339ft 0kts
07-Sep-18 14:58 42.374763 -122.878425 292 1339ft 0kts
07-Sep-18 14:58 42.374763 -122.878425 292 1339ft 0kts
07-Sep-18 14:59 42.374763 -122.878425 292 1339ft 0kts
07-Sep-18 15:00 42.374763 -122.878425 292 1339ft 0kts
07-Sep-18 15:01 42.374763 -122.878425 292 1339ft 0kts
07-Sep-18 15:02 42.374763 -122.878425 292 1339ft 0kts
07-Sep-18 15:03 42.374763 -122.878425 292 1339ft 0kts
07-Sep-18 15:04 42.374763 -122.878425 292 1339ft 0kts
07-Sep-18 15:05 42.374763 -122.878425 292 1339ft 0kts
07-Sep-18 15:06 42.374763 -122.878425 292 1339ft 0kts
07-Sep-18 15:07 42.374763 -122.878425 292 1339ft 0kts
07-Sep-18 15:08 42.374763 -122.878425 292 1339ft 0kts
07-Sep-18 15:09 42.374763 -122.878425 292 1339ft 0kts
07-Sep-18 15:10 42.374763 -122.878425 292 1339ft 0kts
07-Sep-18 15:11 42.374763 -122.878425 292 1339ft 0kts
07-Sep-18 15:12 42.374763 -122.878425 292 1339ft 0kts
07-Sep-18 15:13 42.374763 -122.878425 292 1339ft 0kts
07-Sep-18 15:14 42.374763 -122.878425 292 1339ft 0kts
07-Sep-18 15:15 42.374763 -122.878425 292 1339ft 0kts
07-Sep-18 15:16 42.374763 -122.878425 292 1339ft 0kts
07-Sep-18 15:17 42.374763 -122.878425 292 1339ft 0kts
07-Sep-18 15:19 42.374763 -122.878425 292 1339ft 0kts
07-Sep-18 15:20 42.374763 -122.878425 292 1339ft 0kts
07-Sep-18 15:21 42.374763 -122.878425 292 1339ft 0kts
07-Sep-18 15:22 42.374763 -122.878425 292 1339ft 0kts
07-Sep-18 15:23 42.374763 -122.878425 292 1339ft 0kts
07-Sep-18 15:24 42.374763 -122.878425 292 1339ft 0kts
07-Sep-18 15:25 42.374763 -122.878425 292 1339ft 0kts
07-Sep-18 15:26 42.374763 -122.878425 292 1339ft 0kts
07-Sep-18 15:27 42.374763 -122.878425 292 1339ft 0kts
07-Sep-18 15:28 42.374763 -122.878425 292 1339ft 0kts
07-Sep-18 15:29 42.374763 -122.878425 292 1339ft 0kts
07-Sep-18 15:30 42.374763 -122.878425 292 1339ft 0kts
07-Sep-18 15:31 42.374763 -122.878425 292 1339ft 0kts
07-Sep-18 15:32 42.374763 -122.878425 292 1339ft 0kts
07-Sep-18 15:33 42.374763 -122.878425 292 1339ft 0kts
07-Sep-18 15:34 42.374763 -122.878425 292 1339ft 0kts
07-Sep-18 15:35 42.374763 -122.878425 292 1339ft 0kts
07-Sep-18 15:36 42.374763 -122.878425 292 1339ft 0kts
07-Sep-18 15:37 42.374763 -122.878425 292 1339ft 0kts
07-Sep-18 15:38 42.374763 -122.878425 292 1339ft 0kts
07-Sep-18 15:39 42.374763 -122.878425 292 1339ft 0kts
07-Sep-18 15:40 42.374763 -122.878425 292 1339ft 0kts
07-Sep-18 15:41 42.374763 -122.878425 292 1339ft 0kts
07-Sep-18 15:42 42.374763 -122.878425 292 1339ft 0kts
07-Sep-18 15:43 42.374763 -122.878425 292 1339ft 0kts
07-Sep-18 15:44 42.374763 -122.878425 292 1339ft 0kts
07-Sep-18 15:45 42.374763 -122.878425 292 1339ft 0kts
07-Sep-18 15:46 42.374763 -122.878425 292 1339ft 0kts
07-Sep-18 15:47 42.374763 -122.878425 292 1339ft 0kts
07-Sep-18 15:48 42.374763 -122.878425 292 1339ft 0kts
07-Sep-18 15:49 42.374763 -122.878425 292 1339ft 0kts
07-Sep-18 15:50 42.374763 -122.878425 292 1339ft 0kts
07-Sep-18 15:51 42.374137 -122.879152 187 1340ft 10kts
07-Sep-18 15:52 42.372463 -122.875123 112 1339ft 9kts
07-Sep-18 15:53 42.369560 -122.872027 158 1339ft 19kts
07-Sep-18 15:54 42.364903 -122.869572 159 1340ft 15kts
07-Sep-18 15:55 42.363629 -122.868758 118 1339ft 0kts
07-Sep-18 15:56 42.364333 -122.867679 334 1339ft 17kts
07-Sep-18 15:57 42.398164 -122.884511 336 3234ft 196kts
07-Sep-18 15:58 42.454896 -122.906842 346 7810ft 233kts
07-Sep-18 15:59 42.501539 -122.951661 256 11963ft 237kts
07-Sep-18 16:00 42.446248 -122.979726 184 15670ft 248kts
07-Sep-18 16:01 42.370039 -122.983436 185 18246ft 301kts
07-Sep-18 16:02 42.279598 -122.987611 185 20365ft 351kts
07-Sep-18 16:03 42.188059 -122.991705 186 22363ft 377kts
07-Sep-18 16:04 42.082243 -122.996392 187 24692ft 388kts
07-Sep-18 16:05 41.973251 -123.001224 188 26641ft 399kts
07-Sep-18 16:06 41.864213 -123.006045 188 28249ft 408kts
07-Sep-18 16:07 41.750900 -123.011000 189 30092ft 408kts
07-Sep-18 16:08 41.638576 -123.015915 190 31861ft 404kts
07-Sep-18 16:09 41.526614 -123.020811 191 33401ft 402kts
07-Sep-18 16:10 41.415265 -123.025688 192 34710ft 401kts
07-Sep-18 16:11 41.302371 -123.028089 188 35104ft 422kts
07-Sep-18 16:12 41.184377 -123.024567 188 35098ft 426kts
07-Sep-18 16:13 41.066060 -123.021028 188 35095ft 426kts
07-Sep-18 16:14 40.947717 -123.017533 186 35099ft 431kts
07-Sep-18 16:15 40.833807 -123.014065 186 35103ft 439kts
07-Sep-18 16:16 40.711257 -123.010386 186 35102ft 445kts
07-Sep-18 16:17 40.586939 -123.006681 186 35102ft 450kts
07-Sep-18 16:18 40.461653 -123.002962 186 35101ft 454kts
07-Sep-18 16:19 40.335273 -122.999227 186 35101ft 457kts
07-Sep-18 16:20 40.208227 -122.995440 186 35102ft 460kts
07-Sep-18 16:21 40.080312 -122.991725 186 35072ft 462kts
07-Sep-18 16:22 39.952134 -122.987988 186 35021ft 463kts
07-Sep-18 16:23 39.832372 -122.984502 186 35004ft 464kts
07-Sep-18 16:24 39.705255 -122.980815 186 35035ft 465kts
07-Sep-18 16:25 39.576090 -122.977084 186 35048ft 466kts
07-Sep-18 16:26 39.447072 -122.973367 186 35047ft 465kts
07-Sep-18 16:27 39.318265 -122.969666 186 35046ft 462kts
07-Sep-18 16:28 39.190538 -122.966017 186 35046ft 459kts
07-Sep-18 16:29 39.063785 -122.962721 186 35046ft 456kts
07-Sep-18 16:30 38.937031 -122.960282 185 35026ft 456kts
07-Sep-18 16:31 38.822568 -122.942288 173 33388ft 470kts
07-Sep-18 16:32 38.695878 -122.905784 172 31406ft 469kts
07-Sep-18 16:33 38.569886 -122.868802 171 29398ft 464kts
07-Sep-18 16:34 38.445496 -122.832221 171 27407ft 457kts
07-Sep-18 16:35 38.327170 -122.797480 171 25381ft 419kts
07-Sep-18 16:36 38.217132 -122.765336 170 22959ft 399kts
07-Sep-18 16:37 38.111359 -122.734588 170 20252ft 384kts
07-Sep-18 16:38 38.009586 -122.705083 169 17556ft 367kts
07-Sep-18 16:39 37.913225 -122.676106 158 14866ft 352kts
07-Sep-18 16:40 37.839622 -122.606900 142 12200ft 338kts
07-Sep-18 16:41 37.768848 -122.533931 141 11029ft 326kts
07-Sep-18 16:42 37.701717 -122.463291 141 11010ft 302kts
07-Sep-18 16:43 37.637802 -122.395588 141 10985ft 301kts
07-Sep-18 16:44 37.578557 -122.347392 152 10914ft 273kts
07-Sep-18 16:45 37.518910 -122.305055 152 10373ft 249kts
07-Sep-18 16:46 37.461636 -122.262262 130 9286ft 249kts
07-Sep-18 16:47 37.434108 -122.184579 113 8094ft 247kts
07-Sep-18 16:48 37.409994 -122.113380 113 6887ft 243kts
07-Sep-18 16:49 37.437687 -122.054529 21 5662ft 223kts
07-Sep-18 16:50 37.488028 -122.082994 323 4058ft 214kts
07-Sep-18 16:51 37.517256 -122.128977 298 3709ft 203kts
07-Sep-18 16:52 37.541642 -122.186327 298 3008ft 171kts
07-Sep-18 16:53 37.562215 -122.235017 298 2156ft 144kts
07-Sep-18 16:54 37.579329 -122.275830 297 1533ft 121kts
07-Sep-18 16:55 37.594354 -122.311428 297 830ft 109kts
07-Sep-18 16:56 37.609101 -122.346686 297 294ft 114kts
07-Sep-18 16:57 37.620533 -122.373816 298 19ft 40kts
07-Sep-18 16:58 37.625762 -122.383545 29 20ft 11kts
07-Sep-18 16:59 37.627215 -122.383809 303 19ft 0kts

Navigation Log

Ident Type
Flight plan parsing failed, navigation log unavailable